KMRY/MRY METAR and TAF weather

Enter ICAO airport designator
Station Type Date Time Source
KMRY METAR 2021/02/27 20:54 UTC NOAA

KMRY 272054Z 31011KT 10SM CLR 13/04 A3015 RMK AO2 SLP223 T01330044 58009


Station Type Date Time Source
KMRY Decoded METAR 2021/02/27 20:54 UTC NOAA

MONTEREY PENINSULA AIRPORT, CA, United States (KMRY) 36-35N 121-51W 66M
Feb 27, 2021 - 03:54 PM EST / 2021.02.27 2054 UTC
Wind: from the NW (310 degrees) at 13 MPH (11 KT):0
Visibility: 10 mile(s):0
Sky conditions: clear
Temperature: 55.9 F (13.3 C)
Dew Point: 39.9 F (4.4 C)
Relative Humidity: 54%
Pressure (altimeter): 30.15 in. Hg (1020 hPa)
Pressure tendency: 0.03 inches (0.9 hPa) lower than three hours ago
ob: KMRY 272054Z 31011KT 10SM CLR 13/04 A3015 RMK AO2 SLP223 T01330044 58009
cycle: 21

Station Type Date Time Source
KMRY TAF 2021/02/27 18:45 UTC NOAA

TAF
AMD KMRY 271742Z 2718/2818 VRB06KT P6SM SKC
FM272000 30013G20KT P6SM SKC
FM280200 29008G15KT P6SM SCT014
FM280500 VRB05KT P6SM BKN009
FM281300 14008KT P6SM FEW010

Example: see airport list